createdAt,value
2022-10-04T00:00:28.734Z,98874.03
2022-10-04T00:02:34.488Z,98879.25
2022-10-04T00:04:43.946Z,98880.25
2022-10-04T00:06:50.028Z,98878.72
2022-10-04T00:08:56.287Z,98871.00
2022-10-04T00:11:05.132Z,98875.47
2022-10-04T00:13:16.319Z,98867.16
2022-10-04T00:15:21.787Z,98860.47
2022-10-04T00:17:27.876Z,98860.63
2022-10-04T00:19:43.338Z,98861.69
2022-10-04T00:22:12.619Z,98861.91
2022-10-04T00:24:22.113Z,98856.03
2022-10-04T00:27:09.175Z,98863.84
2022-10-04T00:29:31.967Z,98862.13
2022-10-04T00:31:35.000Z,98863.69
2022-10-04T00:33:39.787Z,98865.19
2022-10-04T00:35:50.751Z,98862.44
2022-10-04T00:37:58.442Z,98863.38
2022-10-04T00:40:12.404Z,98864.88
2022-10-04T00:42:50.841Z,98864.88
2022-10-04T00:44:58.102Z,98861.38
2022-10-04T00:47:02.604Z,98865.59
2022-10-04T00:49:08.634Z,98863.81
2022-10-04T00:51:16.220Z,98859.44
2022-10-04T00:53:31.178Z,98858.53
2022-10-04T00:55:37.584Z,98867.09
2022-10-04T00:57:43.015Z,98854.16
2022-10-04T00:59:47.958Z,98856.75
2022-10-04T01:01:54.082Z,98853.31
2022-10-04T01:03:58.864Z,98848.94
2022-10-04T01:06:05.979Z,98855.84
2022-10-04T01:08:12.020Z,98844.63
2022-10-04T01:10:19.737Z,98845.59
2022-10-04T01:12:39.906Z,98850.81
2022-10-04T01:14:49.111Z,98845.84
2022-10-04T01:16:52.781Z,98838.03
2022-10-04T01:18:56.190Z,98834.91
2022-10-04T01:21:01.741Z,98828.22
2022-10-04T01:23:06.452Z,98826.84
2022-10-04T01:25:09.737Z,98828.09
2022-10-04T01:27:38.564Z,98830.94
2022-10-04T01:29:41.558Z,98831.97
2022-10-04T01:31:46.575Z,98820.75
2022-10-04T01:33:51.325Z,98818.31
2022-10-04T01:35:54.315Z,98828.63
2022-10-04T01:37:57.321Z,98825.28
2022-10-04T01:40:02.269Z,98830.47
2022-10-04T01:42:08.531Z,98821.88
2022-10-04T01:44:14.282Z,98824.47
2022-10-04T01:46:21.576Z,98817.63
2022-10-04T01:48:26.616Z,98816.69
2022-10-04T01:50:31.367Z,98806.44
2022-10-04T01:52:36.951Z,98797.72
2022-10-04T01:54:42.837Z,98802.09
2022-10-04T01:56:49.402Z,98800.56
2022-10-04T01:58:54.076Z,98807.69
2022-10-04T02:01:01.045Z,98806.22
2022-10-04T02:03:06.202Z,98800.25
2022-10-04T02:05:12.232Z,98792.53
2022-10-04T02:07:16.910Z,98790.09
2022-10-04T02:09:21.135Z,98785.94
2022-10-04T02:11:26.532Z,98788.53
2022-10-04T02:13:41.789Z,98783.41
2022-10-04T02:15:44.885Z,98782.66
2022-10-04T02:17:48.762Z,98773.09
2022-10-04T02:19:52.155Z,98774.94
2022-10-04T02:21:56.733Z,98775.75
2022-10-04T02:23:59.743Z,98774.19
2022-10-04T02:26:05.768Z,98769.88
2022-10-04T02:28:11.722Z,98773.38
2022-10-04T02:30:16.166Z,98768.34
2022-10-04T02:32:36.729Z,98763.44
2022-10-04T02:34:40.767Z,98764.38
2022-10-04T02:36:43.746Z,98765.13
2022-10-04T02:38:52.636Z,98763.44
2022-10-04T02:40:58.619Z,98769.50
2022-10-04T02:43:04.433Z,98774.31
2022-10-04T02:45:13.685Z,98781.03
2022-10-04T02:47:20.491Z,98775.00
2022-10-04T02:49:29.854Z,98783.50
2022-10-04T02:51:35.150Z,98774.72
2022-10-04T02:53:43.346Z,98773.63
2022-10-04T02:55:47.581Z,98769.28
2022-10-04T02:57:52.420Z,98779.69
2022-10-04T03:00:08.359Z,98771.28
2022-10-04T03:02:29.499Z,98773.94
2022-10-04T03:04:34.829Z,98766.47
2022-10-04T03:06:37.814Z,98771.88
2022-10-04T03:08:47.444Z,98770.34
2022-10-04T03:10:50.756Z,98767.81
2022-10-04T03:12:54.108Z,98770.47
2022-10-04T03:14:57.131Z,98762.69
2022-10-04T03:17:03.942Z,98754.97
2022-10-04T03:19:08.831Z,98758.53
2022-10-04T03:21:14.554Z,98756.16
2022-10-04T03:23:18.807Z,98753.78
2022-10-04T03:25:23.935Z,98753.94
2022-10-04T03:27:33.117Z,98746.25
2022-10-04T03:29:36.429Z,98739.22
2022-10-04T03:31:42.146Z,98730.56
2022-10-04T03:33:45.576Z,98734.16
2022-10-04T03:35:51.750Z,98727.28
2022-10-04T03:37:54.728Z,98729.03
2022-10-04T03:39:58.303Z,98736.09
2022-10-04T03:42:04.671Z,98732.63
2022-10-04T03:44:09.059Z,98735.34
2022-10-04T03:46:13.283Z,98747.38
2022-10-04T03:48:30.194Z,98741.28
2022-10-04T03:50:36.414Z,98745.69
2022-10-04T03:52:51.147Z,98749.91
2022-10-04T03:54:55.898Z,98756.94
2022-10-04T03:56:59.811Z,98748.22
2022-10-04T03:59:04.143Z,98760.28
2022-10-04T04:01:15.138Z,98754.81
2022-10-04T04:03:20.910Z,98759.13
2022-10-04T04:05:26.837Z,98756.53
2022-10-04T04:07:31.364Z,98751.34
2022-10-04T04:09:40.697Z,98747.84
2022-10-04T04:11:44.275Z,98737.53
2022-10-04T04:13:50.806Z,98733.09
2022-10-04T04:15:55.685Z,98736.53
2022-10-04T04:18:01.385Z,98742.41
2022-10-04T04:20:07.837Z,98741.66
2022-10-04T04:22:15.971Z,98742.72
2022-10-04T04:24:23.742Z,98741.88
2022-10-04T04:26:34.916Z,98739.91
2022-10-04T04:28:41.485Z,98734.03
2022-10-04T04:30:46.452Z,98729.81
2022-10-04T04:32:51.310Z,98728.06
2022-10-04T04:34:55.180Z,98733.19
2022-10-04T04:36:59.925Z,98736.63
2022-10-04T04:39:42.755Z,98735.09
2022-10-04T04:41:50.539Z,98736.00
2022-10-04T04:43:54.030Z,98737.00
2022-10-04T04:46:22.420Z,98735.38
2022-10-04T04:48:22.807Z,98744.72
2022-10-04T04:50:27.966Z,98748.28
2022-10-04T04:52:32.695Z,98729.28
2022-10-04T04:54:35.735Z,98735.38
2022-10-04T04:56:38.768Z,98749.13
2022-10-04T04:58:46.051Z,98737.97
2022-10-04T05:00:54.604Z,98747.53
2022-10-04T05:02:59.123Z,98756.91
2022-10-04T05:05:22.400Z,98758.53
2022-10-04T05:07:25.503Z,98749.91
2022-10-04T05:09:31.323Z,98755.09
2022-10-04T05:11:36.236Z,98754.09
2022-10-04T05:13:44.071Z,98761.81
2022-10-04T05:15:47.684Z,98767.81
2022-10-04T05:17:50.728Z,98771.31
2022-10-04T05:19:54.686Z,98767.81
2022-10-04T05:21:58.990Z,98763.28
2022-10-04T05:24:10.851Z,98765.81
2022-10-04T05:26:15.412Z,98765.06
2022-10-04T05:28:19.215Z,98764.06
2022-10-04T05:30:45.380Z,98766.50
2022-10-04T05:32:54.815Z,98770.75
2022-10-04T05:34:59.460Z,98762.13
2022-10-04T05:37:22.248Z,98767.19
2022-10-04T05:39:28.652Z,98767.09
2022-10-04T05:41:35.981Z,98768.84
2022-10-04T05:43:46.785Z,98770.59
2022-10-04T05:46:12.290Z,98768.19
2022-10-04T05:48:15.380Z,98771.66
2022-10-04T05:50:21.142Z,98766.47
2022-10-04T05:52:30.495Z,98762.97
2022-10-04T05:54:37.873Z,98755.28
2022-10-04T05:57:19.194Z,98755.28
2022-10-04T05:59:42.167Z,98753.66
2022-10-04T06:01:53.997Z,98756.41
2022-10-04T06:04:09.874Z,98758.25
2022-10-04T06:06:17.571Z,98760.00
2022-10-04T06:08:30.320Z,98760.69
2022-10-04T06:10:53.346Z,98749.97
2022-10-04T06:13:00.396Z,98764.50
2022-10-04T06:15:27.011Z,98760.91
2022-10-04T06:17:50.294Z,98765.72
2022-10-04T06:20:15.340Z,98755.34
2022-10-04T06:22:19.440Z,98762.00
2022-10-04T06:24:27.078Z,98762.63
2022-10-04T06:26:35.585Z,98765.00
2022-10-04T06:28:41.904Z,98768.25
2022-10-04T06:30:56.139Z,98768.19
2022-10-04T06:33:09.963Z,98774.94
2022-10-04T06:35:36.703Z,98780.66
2022-10-04T06:38:14.747Z,98781.34
2022-10-04T06:40:50.368Z,98782.72
2022-10-04T06:43:04.199Z,98780.81
2022-10-04T06:45:21.972Z,98790.31
2022-10-04T06:47:39.166Z,98788.47
2022-10-04T06:49:47.372Z,98796.19
2022-10-04T06:52:17.402Z,98797.56
2022-10-04T06:54:35.216Z,98799.63
2022-10-04T06:56:55.958Z,98798.47
2022-10-04T06:59:19.429Z,98814.72
2022-10-04T07:01:28.646Z,98815.16
2022-10-04T07:03:37.963Z,98803.44
2022-10-04T07:05:46.367Z,98805.56
2022-10-04T07:08:06.390Z,98808.69
2022-10-04T07:10:32.250Z,98816.94
2022-10-04T07:12:36.424Z,98816.63
2022-10-04T07:14:44.545Z,98811.09
2022-10-04T07:16:49.581Z,98807.09
2022-10-04T07:18:58.980Z,98806.69
2022-10-04T07:21:06.963Z,98802.88
2022-10-04T07:23:15.627Z,98802.56
2022-10-04T07:25:22.586Z,98807.59
2022-10-04T07:27:30.162Z,98824.59
2022-10-04T07:29:38.741Z,98827.66
2022-10-04T07:31:45.772Z,98824.63
2022-10-04T07:33:51.563Z,98823.56
2022-10-04T07:36:00.437Z,98829.19
2022-10-04T07:38:11.612Z,98834.88
2022-10-04T07:40:22.294Z,98831.94
2022-10-04T07:42:30.845Z,98823.13
2022-10-04T07:44:36.516Z,98827.31
2022-10-04T07:46:46.080Z,98833.03
2022-10-04T07:48:49.568Z,98827.41
2022-10-04T07:51:03.324Z,98825.44
2022-10-04T07:53:10.149Z,98822.22
2022-10-04T07:55:20.241Z,98817.56
2022-10-04T07:57:27.090Z,98810.41
2022-10-04T07:59:39.246Z,98824.13
2022-10-04T08:01:47.392Z,98829.94
2022-10-04T08:04:01.575Z,98826.78
2022-10-04T08:06:11.474Z,98828.69
2022-10-04T08:08:27.191Z,98834.84
2022-10-04T08:10:34.046Z,98825.56
2022-10-04T08:12:47.680Z,98823.78
2022-10-04T08:14:56.760Z,98830.47
2022-10-04T08:17:15.437Z,98831.97
2022-10-04T08:19:33.307Z,98838.31
2022-10-04T08:21:42.614Z,98841.09
2022-10-04T08:23:56.976Z,98836.59
2022-10-04T08:26:08.881Z,98836.00
2022-10-04T08:28:39.028Z,98841.81
2022-10-04T08:30:53.779Z,98835.56
2022-10-04T08:33:06.302Z,98837.97
2022-10-04T08:35:46.699Z,98844.28
2022-10-04T08:38:00.582Z,98831.47
2022-10-04T08:40:44.112Z,98829.34
2022-10-04T08:43:09.322Z,98833.78
2022-10-04T08:45:54.089Z,98834.13
2022-10-04T08:48:40.055Z,98838.31
2022-10-04T08:51:03.729Z,98845.72
2022-10-04T08:53:33.360Z,98852.94
2022-10-04T08:55:48.630Z,98852.84
2022-10-04T08:58:15.252Z,98853.34
2022-10-04T09:00:22.077Z,98858.28
2022-10-04T09:02:41.639Z,98854.19
2022-10-04T09:04:58.628Z,98843.75
2022-10-04T09:07:29.628Z,98845.56
2022-10-04T09:10:06.750Z,98846.69
2022-10-04T09:12:44.239Z,98850.06
2022-10-04T09:15:03.072Z,98840.78
2022-10-04T09:17:22.263Z,98833.63
2022-10-04T09:19:38.565Z,98836.66
2022-10-04T09:21:50.741Z,98837.03
2022-10-04T09:24:22.896Z,98830.84
2022-10-04T09:26:33.170Z,98829.88
2022-10-04T09:29:05.145Z,98832.50
2022-10-04T09:31:23.285Z,98835.75
2022-10-04T09:33:44.455Z,98823.94
2022-10-04T09:36:11.069Z,98819.13
2022-10-04T09:38:48.652Z,98820.41
2022-10-04T09:41:22.546Z,98822.69
2022-10-04T09:43:45.802Z,98827.66
2022-10-04T09:46:00.678Z,98827.25
2022-10-04T09:48:25.155Z,98818.84
2022-10-04T09:50:42.846Z,98831.16
2022-10-04T09:52:52.124Z,98829.69
2022-10-04T09:55:08.470Z,98833.22
2022-10-04T09:57:30.212Z,98823.88
2022-10-04T09:59:53.917Z,98821.00
2022-10-04T10:02:29.507Z,98827.16
2022-10-04T10:04:44.533Z,98822.78
2022-10-04T10:06:56.567Z,98828.50
2022-10-04T10:09:09.158Z,98830.25
2022-10-04T10:11:34.750Z,98823.50
2022-10-04T10:14:06.594Z,98824.88
2022-10-04T10:16:42.016Z,98834.22
2022-10-04T10:18:53.637Z,98822.84
2022-10-04T10:21:12.747Z,98820.00
2022-10-04T10:23:30.358Z,98834.31
2022-10-04T10:25:47.794Z,98826.53
2022-10-04T10:27:58.603Z,98829.28
2022-10-04T10:30:12.514Z,98827.03
2022-10-04T10:32:34.563Z,98830.50
2022-10-04T10:35:01.771Z,98828.69
2022-10-04T10:37:15.918Z,98821.69
2022-10-04T10:40:03.451Z,98816.84
2022-10-04T10:42:13.158Z,98819.75
2022-10-04T10:44:26.785Z,98819.34
2022-10-04T10:46:44.080Z,98814.94
2022-10-04T10:49:06.016Z,98811.38
2022-10-04T10:51:15.177Z,98811.56
2022-10-04T10:53:48.133Z,98808.41
2022-10-04T10:56:20.502Z,98808.88
2022-10-04T10:59:01.651Z,98811.66
2022-10-04T11:01:32.538Z,98802.22
2022-10-04T11:03:59.578Z,98804.47
2022-10-04T11:06:20.446Z,98805.25
2022-10-04T11:08:46.476Z,98801.66
2022-10-04T11:11:13.545Z,98796.94
2022-10-04T11:13:41.543Z,98788.06
2022-10-04T11:16:07.207Z,98784.03
2022-10-04T11:18:34.641Z,98773.19
2022-10-04T11:21:05.681Z,98781.41
2022-10-04T11:23:45.825Z,98775.72
2022-10-04T11:25:59.642Z,98774.06
2022-10-04T11:28:06.166Z,98770.28
2022-10-04T11:30:16.820Z,98775.88
2022-10-04T11:32:45.543Z,98771.97
2022-10-04T11:35:21.830Z,98772.44
2022-10-04T11:37:43.566Z,98770.88
2022-10-04T11:40:05.593Z,98768.09
2022-10-04T11:42:19.215Z,98760.03
2022-10-04T11:44:43.583Z,98763.25
2022-10-04T11:46:51.595Z,98760.03
2022-10-04T11:49:04.631Z,98756.16
2022-10-04T11:51:45.271Z,98751.00
2022-10-04T11:54:30.189Z,98749.59
2022-10-04T11:57:00.031Z,98741.66
2022-10-04T11:59:20.298Z,98742.25
2022-10-04T12:01:43.860Z,98736.97
2022-10-04T12:04:03.971Z,98737.78
2022-10-04T12:06:18.281Z,98731.41
2022-10-04T12:08:31.019Z,98732.50
2022-10-04T12:10:37.604Z,98726.38
2022-10-04T12:13:05.473Z,98731.09
2022-10-04T12:15:28.030Z,98728.03
2022-10-04T12:17:56.550Z,98726.22
2022-10-04T12:20:16.264Z,98717.34
2022-10-04T12:22:29.050Z,98725.28
2022-10-04T12:24:49.791Z,98715.53
2022-10-04T12:27:18.730Z,98717.06
2022-10-04T12:30:06.661Z,98719.44
2022-10-04T12:32:15.448Z,98706.09
2022-10-04T12:34:24.648Z,98708.44
2022-10-04T12:36:36.889Z,98706.63
2022-10-04T12:39:14.863Z,98697.88
2022-10-04T12:41:29.576Z,98695.91
2022-10-04T12:43:40.133Z,98699.25
2022-10-04T12:45:52.757Z,98687.44
2022-10-04T12:48:06.991Z,98690.75
2022-10-04T12:50:18.721Z,98693.00
2022-10-04T12:52:24.568Z,98693.81
2022-10-04T12:54:34.411Z,98686.72
2022-10-04T12:56:47.530Z,98688.38
2022-10-04T12:59:01.616Z,98686.31
2022-10-04T13:01:13.364Z,98695.63
2022-10-04T13:03:26.970Z,98695.63
2022-10-04T13:05:35.372Z,98693.38
2022-10-04T13:07:51.266Z,98699.66
2022-10-04T13:10:26.496Z,98689.63
2022-10-04T13:12:38.524Z,98694.25
2022-10-04T13:14:49.329Z,98684.63
2022-10-04T13:19:23.858Z,98692.84
2022-10-04T13:22:03.494Z,98688.09
2022-10-04T13:24:14.133Z,98691.88
2022-10-04T13:26:30.055Z,98685.59
2022-10-04T13:28:39.123Z,98688.09
2022-10-04T13:30:48.645Z,98697.72
2022-10-04T13:33:00.097Z,98692.28
2022-10-04T13:35:12.592Z,98689.91
2022-10-04T13:37:30.090Z,98690.75
2022-10-04T13:39:44.951Z,98696.88
2022-10-04T13:42:12.329Z,98684.63
2022-10-04T13:44:34.184Z,98690.47
2022-10-04T13:46:41.286Z,98692.16
2022-10-04T13:48:55.429Z,98689.34
2022-10-04T13:51:19.316Z,98698.25
2022-10-04T13:53:53.772Z,98685.47
2022-10-04T13:56:19.111Z,98696.59
2022-10-04T13:58:32.784Z,98696.59
2022-10-04T14:00:51.509Z,98683.25
2022-10-04T14:03:04.839Z,98685.03
2022-10-04T14:05:52.390Z,98684.06
2022-10-04T14:08:10.547Z,98681.16
2022-10-04T14:10:45.865Z,98678.38
2022-10-04T14:13:06.068Z,98675.72
2022-10-04T14:15:30.811Z,98681.00
2022-10-04T14:17:56.190Z,98672.25
2022-10-04T14:20:25.857Z,98673.91
2022-10-04T14:23:04.188Z,98663.19
2022-10-04T14:25:35.706Z,98664.03
2022-10-04T14:28:15.543Z,98662.34
2022-10-04T14:30:21.316Z,98653.59
2022-10-04T14:32:49.967Z,98649.97
2022-10-04T14:34:58.168Z,98656.78
2022-10-04T14:37:15.042Z,98650.53
2022-10-04T14:40:02.978Z,98650.81
2022-10-04T14:42:32.346Z,98650.66
2022-10-04T14:44:56.325Z,98645.38
2022-10-04T14:47:16.098Z,98649.69
2022-10-04T14:49:24.525Z,98652.19
2022-10-04T14:51:41.682Z,98649.69
2022-10-04T14:53:53.628Z,98650.66
2022-10-04T14:56:26.184Z,98654.97
2022-10-04T14:58:38.368Z,98647.88
2022-10-04T15:01:02.929Z,98643.56
2022-10-04T15:03:28.855Z,98648.84
2022-10-04T15:05:44.327Z,98646.22
2022-10-04T15:07:49.959Z,98648.84
2022-10-04T15:09:55.984Z,98644.53
2022-10-04T15:12:27.131Z,98642.88
2022-10-04T15:14:38.233Z,98640.91
2022-10-04T15:16:47.585Z,98633.94
2022-10-04T15:18:54.727Z,98639.25
2022-10-04T15:21:01.053Z,98636.75
2022-10-04T15:23:17.702Z,98638.56
2022-10-04T15:25:41.751Z,98634.09
2022-10-04T15:27:53.721Z,98630.63
2022-10-04T15:30:09.356Z,98631.59
2022-10-04T15:32:24.219Z,98629.94
2022-10-04T15:34:33.383Z,98630.91
2022-10-04T15:36:48.258Z,98632.88
2022-10-04T15:38:57.169Z,98627.59
2022-10-04T15:41:03.528Z,98617.16
2022-10-04T15:43:19.898Z,98618.25
2022-10-04T15:45:36.436Z,98617.72
2022-10-04T15:47:55.917Z,98615.38
2022-10-04T15:50:07.592Z,98619.13
2022-10-04T15:52:41.791Z,98627.03
2022-10-04T15:55:03.488Z,98616.75
2022-10-04T15:57:19.391Z,98624.81
2022-10-04T15:59:36.677Z,98626.78
2022-10-04T16:01:55.971Z,98627.75
2022-10-04T16:04:21.787Z,98623.75
2022-10-04T16:06:26.982Z,98617.88
2022-10-04T16:08:48.572Z,98611.22
2022-10-04T16:11:07.740Z,98613.44
2022-10-04T16:13:27.554Z,98610.41
2022-10-04T16:15:32.887Z,98605.66
2022-10-04T16:18:12.294Z,98598.31
2022-10-04T16:20:33.425Z,98597.91
2022-10-04T16:22:38.174Z,98601.78
2022-10-04T16:24:45.519Z,98600.28
2022-10-04T16:27:20.383Z,98599.84
2022-10-04T16:29:29.959Z,98592.31
2022-10-04T16:31:43.818Z,98586.75
2022-10-04T16:33:56.318Z,98595.22
2022-10-04T16:36:21.650Z,98597.84
2022-10-04T16:38:26.244Z,98594.22
2022-10-04T16:40:35.551Z,98607.81
2022-10-04T16:42:49.903Z,98599.34
2022-10-04T16:44:56.534Z,98598.81
2022-10-04T16:47:03.088Z,98597.53
2022-10-04T16:49:20.011Z,98591.13
2022-10-04T16:51:48.699Z,98591.81
2022-10-04T16:53:54.596Z,98587.09
2022-10-04T16:56:02.308Z,98586.91
2022-10-04T16:58:50.417Z,98595.22
2022-10-04T17:01:34.099Z,98600.88
2022-10-04T17:03:37.854Z,98604.91
2022-10-04T17:05:54.333Z,98600.13
2022-10-04T17:08:21.690Z,98606.47
2022-10-04T17:10:34.155Z,98611.56
2022-10-04T17:12:45.602Z,98609.44
2022-10-04T17:14:58.627Z,98621.19
2022-10-04T17:17:03.390Z,98620.78
2022-10-04T17:19:20.748Z,98613.38
2022-10-04T17:21:29.533Z,98615.72
2022-10-04T17:24:03.396Z,98617.19
2022-10-04T17:26:14.135Z,98624.16
2022-10-04T17:28:26.175Z,98629.13
2022-10-04T17:30:31.810Z,98618.28
2022-10-04T17:32:45.831Z,98615.44
2022-10-04T17:34:58.505Z,98612.34
2022-10-04T17:37:06.657Z,98613.69
2022-10-04T17:39:33.024Z,98611.66
2022-10-04T17:41:50.302Z,98610.47
2022-10-04T17:44:17.516Z,98594.38
2022-10-04T17:46:23.768Z,98597.63
2022-10-04T17:48:47.272Z,98598.81
2022-10-04T17:51:13.932Z,98599.19
2022-10-04T17:53:39.898Z,98589.53
2022-10-04T17:55:47.957Z,98588.94
2022-10-04T17:57:54.352Z,98577.81
2022-10-04T18:00:08.324Z,98575.56
2022-10-04T18:02:13.377Z,98568.88
2022-10-04T18:04:20.001Z,98570.94
2022-10-04T18:06:30.337Z,98579.44
2022-10-04T18:08:43.194Z,98586.03
2022-10-04T18:10:51.385Z,98587.94
2022-10-04T18:12:59.665Z,98584.38
2022-10-04T18:15:07.929Z,98581.75
2022-10-04T18:17:15.556Z,98588.47
2022-10-04T18:19:37.087Z,98599.47
2022-10-04T18:21:49.861Z,98602.41
2022-10-04T18:23:55.713Z,98607.22
2022-10-04T18:26:03.649Z,98599.06
2022-10-04T18:28:15.247Z,98594.53
2022-10-04T18:30:21.553Z,98598.59
2022-10-04T18:32:36.108Z,98596.31
2022-10-04T18:34:40.263Z,98602.06
2022-10-04T18:36:54.531Z,98609.44
2022-10-04T18:39:17.783Z,98605.50
2022-10-04T18:41:23.236Z,98606.91
2022-10-04T18:43:29.638Z,98609.06
2022-10-04T18:45:33.810Z,98615.47
2022-10-04T18:47:39.113Z,98613.19
2022-10-04T18:49:48.295Z,98622.28
2022-10-04T18:52:03.091Z,98620.81
2022-10-04T18:54:13.666Z,98620.34
2022-10-04T18:56:17.778Z,98617.09
2022-10-04T18:58:50.290Z,98621.72
2022-10-04T19:01:15.600Z,98618.50
2022-10-04T19:03:26.302Z,98624.09
2022-10-04T19:05:37.725Z,98620.88
2022-10-04T19:07:46.473Z,98620.13
2022-10-04T19:10:08.079Z,98620.34
2022-10-04T19:12:14.235Z,98619.75
2022-10-04T19:14:25.047Z,98626.16
2022-10-04T19:16:37.201Z,98626.38
2022-10-04T19:18:58.416Z,98633.63
2022-10-04T19:21:08.021Z,98633.94
2022-10-04T19:23:19.596Z,98643.72
2022-10-04T19:25:33.315Z,98643.94
2022-10-04T19:27:39.324Z,98645.09
2022-10-04T19:29:57.403Z,98643.66
2022-10-04T19:32:03.257Z,98641.50
2022-10-04T19:34:11.598Z,98635.50
2022-10-04T19:36:26.609Z,98643.59
2022-10-04T19:38:55.612Z,98642.16
2022-10-04T19:41:04.652Z,98651.16
2022-10-04T19:43:12.010Z,98648.75
2022-10-04T19:45:24.982Z,98650.66
2022-10-04T19:47:40.240Z,98647.53
2022-10-04T19:49:47.357Z,98647.00
2022-10-04T19:51:54.448Z,98652.47
2022-10-04T19:54:04.763Z,98651.75
2022-10-04T19:56:10.376Z,98665.06
2022-10-04T19:58:25.734Z,98659.81
2022-10-04T20:00:30.157Z,98658.13
2022-10-04T20:02:33.201Z,98655.94
2022-10-04T20:04:37.914Z,98664.00
2022-10-04T20:06:49.269Z,98673.78
2022-10-04T20:08:59.365Z,98664.47
2022-10-04T20:11:16.047Z,98668.25
2022-10-04T20:13:23.554Z,98671.06
2022-10-04T20:15:46.713Z,98668.66
2022-10-04T20:17:50.929Z,98675.03
2022-10-04T20:19:54.017Z,98680.50
2022-10-04T20:21:58.045Z,98678.09
2022-10-04T20:24:01.614Z,98684.28
2022-10-04T20:26:06.174Z,98684.50
2022-10-04T20:28:09.437Z,98693.38
2022-10-04T20:30:14.359Z,98683.94
2022-10-04T20:32:50.752Z,98688.47
2022-10-04T20:34:55.656Z,98690.47
2022-10-04T20:36:58.801Z,98692.34
2022-10-04T20:39:03.027Z,98690.00
2022-10-04T20:41:06.216Z,98695.44
2022-10-04T20:43:30.087Z,98692.72
2022-10-04T20:45:33.243Z,98697.22
2022-10-04T20:47:39.774Z,98701.63
2022-10-04T20:49:44.976Z,98700.88
2022-10-04T20:51:50.969Z,98703.72
2022-10-04T20:53:54.208Z,98705.56
2022-10-04T20:56:11.938Z,98710.09
2022-10-04T20:58:26.570Z,98708.38
2022-10-04T21:00:34.419Z,98715.53
2022-10-04T21:02:37.623Z,98716.44
2022-10-04T21:04:44.162Z,98721.78
2022-10-04T21:06:55.165Z,98724.50
2022-10-04T21:08:58.222Z,98728.19
2022-10-04T21:11:23.803Z,98721.34
2022-10-04T21:13:54.742Z,98726.69
2022-10-04T21:15:57.807Z,98737.34
2022-10-04T21:18:03.133Z,98730.53
2022-10-04T21:20:07.229Z,98736.00
2022-10-04T21:22:12.503Z,98736.84
2022-10-04T21:24:36.367Z,98737.03
2022-10-04T21:26:39.469Z,98739.75
2022-10-04T21:28:42.788Z,98735.75
2022-10-04T21:30:45.981Z,98730.72
2022-10-04T21:32:49.238Z,98743.06
2022-10-04T21:34:54.429Z,98741.47
2022-10-04T21:36:58.742Z,98740.63
2022-10-04T21:39:03.177Z,98733.72
2022-10-04T21:41:06.584Z,98736.25
2022-10-04T21:43:09.602Z,98740.75
2022-10-04T21:45:12.643Z,98736.44
2022-10-04T21:47:15.880Z,98742.63
2022-10-04T21:49:18.981Z,98734.22
2022-10-04T21:51:21.961Z,98746.47
2022-10-04T21:53:24.998Z,98744.03
2022-10-04T21:55:29.398Z,98751.97
2022-10-04T21:57:35.676Z,98745.25
2022-10-04T21:59:39.111Z,98742.75
2022-10-04T22:01:42.073Z,98745.50
2022-10-04T22:03:45.083Z,98750.91
2022-10-04T22:05:48.116Z,98742.31
2022-10-04T22:07:51.158Z,98744.19
2022-10-04T22:09:54.082Z,98749.31
2022-10-04T22:11:58.420Z,98745.97
2022-10-04T22:14:01.582Z,98746.91
2022-10-04T22:16:04.997Z,98747.09
2022-10-04T22:18:08.185Z,98745.50
2022-10-04T22:20:11.168Z,98741.31
2022-10-04T22:22:15.933Z,98741.41
2022-10-04T22:24:20.533Z,98736.28
2022-10-04T22:26:24.403Z,98735.63
2022-10-04T22:28:30.816Z,98734.16
2022-10-04T22:30:34.343Z,98724.72
2022-10-04T22:32:39.044Z,98733.38
2022-10-04T22:34:42.007Z,98718.66
2022-10-04T22:36:46.081Z,98710.94
2022-10-04T22:38:52.323Z,98711.03
2022-10-04T22:40:55.371Z,98705.78
2022-10-04T22:43:00.658Z,98704.94
2022-10-04T22:45:09.417Z,98698.25
2022-10-04T22:47:14.344Z,98703.56
2022-10-04T22:49:19.679Z,98697.63
2022-10-04T22:51:22.713Z,98700.41
2022-10-04T22:53:25.851Z,98701.34
2022-10-04T22:55:28.912Z,98698.00
2022-10-04T22:57:32.338Z,98700.69
2022-10-04T22:59:37.051Z,98693.97
2022-10-04T23:01:41.638Z,98696.69
2022-10-04T23:03:46.736Z,98691.66
2022-10-04T23:05:49.736Z,98687.59
2022-10-04T23:07:52.742Z,98685.19
2022-10-04T23:09:55.726Z,98683.63
2022-10-04T23:11:58.792Z,98681.19
2022-10-04T23:14:02.009Z,98681.47
2022-10-04T23:16:12.608Z,98668.72
2022-10-04T23:18:18.259Z,98664.50
2022-10-04T23:20:21.609Z,98650.63
2022-10-04T23:22:28.024Z,98656.78
2022-10-04T23:24:31.750Z,98655.22
2022-10-04T23:26:39.201Z,98653.63
2022-10-04T23:28:42.273Z,98656.22
2022-10-04T23:30:46.500Z,98663.22
2022-10-04T23:32:51.048Z,98663.22
2022-10-04T23:34:57.045Z,98660.63
2022-10-04T23:37:00.147Z,98659.03
2022-10-04T23:39:03.214Z,98657.53
2022-10-04T23:41:10.559Z,98650.84
2022-10-04T23:43:19.416Z,98644.13
2022-10-04T23:45:23.423Z,98641.69
2022-10-04T23:47:32.510Z,98642.59
2022-10-04T23:49:35.473Z,98636.47
2022-10-04T23:51:39.776Z,98637.38
2022-10-04T23:53:43.763Z,98637.56
2022-10-04T23:55:47.081Z,98635.06
2022-10-04T23:57:50.588Z,98636.94
2022-10-04T23:59:53.937Z,98645.50
